Time;durP1;ratioP1;P1;durP2;ratioP2;P2;SDS_P1;SDS_P2;PMS_P1;PMS_P2;Temp;Humidity;BMP_temperature;BMP_pressure;BME280_temperature;BME280_humidity;BME280_pressure;Samples;Min_cycle;Max_cycle;Signal;HPM_P1;HPM_P2
2021/11/02 00:01:06;;;;;;;5.00;3.23;;;11.90;99.00;;;;;;4995591;28;20512;-67
2021/11/02 00:03:32;;;;;;;3.23;2.93;;;11.90;99.00;;;;;;5012064;28;20949;-67
2021/11/02 00:05:58;;;;;;;5.03;3.30;;;11.90;99.10;;;;;;5012731;28;20900;-68
2021/11/02 00:08:24;;;;;;;6.27;3.40;;;11.90;99.30;;;;;;5011428;28;20420;-74
2021/11/02 00:10:50;;;;;;;3.60;3.30;;;11.90;99.40;;;;;;5012524;28;20186;-68
2021/11/02 00:13:17;;;;;;;4.57;3.20;;;11.90;99.80;;;;;;4996729;28;20214;-67
2021/11/02 00:15:49;;;;;;;5.70;3.00;;;11.90;99.90;;;;;;5013128;28;20178;-67
2021/11/02 00:18:19;;;;;;;3.60;3.40;;;12.00;99.90;;;;;;5013692;28;20422;-67
2021/11/02 00:20:44;;;;;;;5.67;3.10;;;12.00;99.90;;;;;;5012642;28;20453;-67
2021/11/02 00:23:10;;;;;;;4.47;3.30;;;12.10;99.90;;;;;;5013061;28;20463;-67
2021/11/02 00:25:36;;;;;;;5.20;3.27;;;12.00;99.90;;;;;;5011983;28;20184;-67
2021/11/02 00:28:04;;;;;;;5.53;3.27;;;12.00;99.90;;;;;;5012295;28;20418;-69
2021/11/02 00:30:30;;;;;;;3.33;3.03;;;12.10;99.90;;;;;;5009862;28;20202;-67
2021/11/02 00:32:56;;;;;;;3.23;2.97;;;12.10;99.90;;;;;;5012088;28;20445;-67
2021/11/02 00:35:23;;;;;;;3.00;2.90;;;12.10;99.90;;;;;;5012417;28;20917;-73
2021/11/02 00:37:52;;;;;;;5.47;3.60;;;12.10;99.90;;;;;;5011726;28;20411;-67
2021/11/02 00:40:20;;;;;;;3.50;3.20;;;12.20;99.90;;;;;;5011380;28;20519;-67
2021/11/02 00:42:53;;;;;;;3.27;2.97;;;12.20;99.90;;;;;;5011690;28;20582;-67
2021/11/02 00:45:30;;;;;;;4.30;3.90;;;12.20;99.90;;;;;;4995544;28;20407;-67
2021/11/02 00:48:02;;;;;;;5.43;3.60;;;12.30;99.90;;;;;;5013336;28;20771;-67
2021/11/02 00:50:34;;;;;;;6.27;3.40;;;12.30;99.90;;;;;;5011253;28;20421;-69
2021/11/02 00:53:00;;;;;;;3.73;3.13;;;12.30;99.90;;;;;;5011691;28;20436;-67
2021/11/02 00:55:25;;;;;;;4.90;4.00;;;12.30;99.90;;;;;;5011304;28;20761;-73
2021/11/02 00:57:51;;;;;;;5.73;3.60;;;12.30;99.90;;;;;;5012094;28;20654;-68
2021/11/02 01:00:17;;;;;;;4.10;3.80;;;12.30;99.90;;;;;;5008627;28;20207;-66
2021/11/02 01:02:43;;;;;;;4.10;3.57;;;12.30;99.90;;;;;;5010486;28;20647;-67
2021/11/02 01:05:11;;;;;;;3.50;3.30;;;12.30;99.90;;;;;;5011857;28;20803;-68
2021/11/02 01:07:37;;;;;;;3.70;3.13;;;12.40;99.90;;;;;;5010717;28;20418;-67
2021/11/02 01:10:11;;;;;;;3.67;3.30;;;12.40;99.90;;;;;;5011677;28;20406;-68
2021/11/02 01:12:37;;;;;;;4.93;3.50;;;12.40;99.90;;;;;;5010976;28;20905;-67
2021/11/02 01:15:04;;;;;;;3.50;3.20;;;12.40;99.90;;;;;;5011808;28;20468;-67
2021/11/02 01:17:30;;;;;;;4.97;4.13;;;12.40;99.90;;;;;;5010895;28;20415;-69
2021/11/02 01:19:56;;;;;;;4.10;3.70;;;12.50;99.90;;;;;;5011999;28;20558;-67
2021/11/02 01:22:22;;;;;;;4.03;3.43;;;12.50;99.90;;;;;;5011899;28;20510;-68
2021/11/02 01:24:48;;;;;;;4.00;3.60;;;12.50;99.90;;;;;;5012178;28;20174;-67
2021/11/02 01:27:14;;;;;;;4.50;3.33;;;12.50;99.90;;;;;;5012836;28;20481;-68
2021/11/02 01:29:39;;;;;;;4.90;3.50;;;12.50;99.90;;;;;;5011358;28;20430;-67
2021/11/02 01:32:05;;;;;;;4.47;4.10;;;12.50;99.90;;;;;;5012457;28;20282;-67
2021/11/02 01:34:31;;;;;;;3.40;3.20;;;12.50;99.90;;;;;;4994412;28;20508;-68
2021/11/02 01:36:58;;;;;;;5.57;3.93;;;12.60;99.90;;;;;;5012611;28;20430;-67
2021/11/02 01:39:26;;;;;;;5.53;3.27;;;12.60;99.90;;;;;;5012370;28;20621;-74
2021/11/02 01:41:52;;;;;;;3.60;3.20;;;12.60;99.90;;;;;;5011732;28;20471;-67
2021/11/02 01:44:18;;;;;;;4.37;3.90;;;12.60;99.90;;;;;;5012641;28;20401;-67
2021/11/02 01:46:45;;;;;;;3.50;3.30;;;12.60;99.90;;;;;;5011496;28;21098;-67
2021/11/02 01:49:12;;;;;;;7.07;3.90;;;12.60;99.90;;;;;;5012247;28;20836;-67
2021/11/02 01:51:38;;;;;;;4.60;3.50;;;12.70;99.90;;;;;;5011646;28;20476;-67
2021/11/02 01:54:05;;;;;;;6.43;3.40;;;12.70;99.90;;;;;;5012476;28;20877;-67
2021/11/02 01:56:33;;;;;;;4.00;3.60;;;12.70;99.90;;;;;;4993314;28;20632;-67
2021/11/02 01:59:00;;;;;;;5.37;3.33;;;12.70;99.90;;;;;;5012130;28;20421;-67
2021/11/02 02:01:31;;;;;;;4.30;3.63;;;12.70;99.90;;;;;;5010854;28;20453;-73
2021/11/02 02:04:00;;;;;;;3.40;3.03;;;12.80;99.90;;;;;;5012697;28;20405;-67
2021/11/02 02:06:44;;;;;;;5.87;2.83;;;12.80;99.90;;;;;;5012031;28;20411;-74
2021/11/02 02:09:15;;;;;;;3.80;2.80;;;12.80;99.80;;;;;;5012397;28;20420;-68
2021/11/02 02:11:50;;;;;;;3.83;3.63;;;12.90;99.50;;;;;;5011309;28;20461;-67
2021/11/02 02:14:32;;;;;;;3.10;2.90;;;12.90;99.40;;;;;;5012310;28;20424;-67
2021/11/02 02:17:01;;;;;;;4.73;2.90;;;12.90;99.40;;;;;;5012368;28;20475;-67
2021/11/02 02:19:46;;;;;;;2.97;2.73;;;12.90;99.30;;;;;;5011948;28;20411;-73
2021/11/02 02:22:52;;;;;;;3.20;2.90;;;12.80;99.40;;;;;;5011715;28;20985;-67
2021/11/02 02:25:21;;;;;;;3.13;2.83;;;12.80;99.50;;;;;;4994781;28;20430;-67
2021/11/02 02:28:05;;;;;;;4.63;3.07;;;12.80;99.40;;;;;;5011309;28;21124;-67
2021/11/02 02:30:31;;;;;;;3.83;2.90;;;12.90;99.40;;;;;;4977284;28;20436;-71
2021/11/02 02:32:59;;;;;;;3.20;2.50;;;12.90;99.30;;;;;;5012123;28;20478;-67
2021/11/02 02:35:27;;;;;;;2.60;2.50;;;12.90;99.30;;;;;;5012100;28;20835;-67
2021/11/02 02:37:54;;;;;;;3.77;3.27;;;12.90;99.30;;;;;;5011493;28;20426;-67
2021/11/02 02:40:21;;;;;;;4.40;2.77;;;12.90;99.30;;;;;;4994426;28;20935;-67
2021/11/02 02:42:48;;;;;;;2.97;2.80;;;12.90;99.40;;;;;;5010811;28;20534;-68
2021/11/02 02:45:15;;;;;;;2.73;2.53;;;13.00;99.40;;;;;;5012139;28;20440;-67
2021/11/02 02:47:44;;;;;;;3.23;2.80;;;12.90;99.30;;;;;;5005536;28;20428;-68
2021/11/02 02:50:10;;;;;;;3.70;3.00;;;12.90;99.40;;;;;;5010508;28;20423;-68
2021/11/02 02:52:37;;;;;;;4.83;2.90;;;12.90;99.40;;;;;;5009837;28;20530;-67
2021/11/02 02:55:05;;;;;;;3.50;3.20;;;12.90;99.40;;;;;;5011213;28;20971;-67
2021/11/02 02:57:32;;;;;;;3.07;2.80;;;12.80;99.40;;;;;;4994181;28;20443;-73
2021/11/02 03:00:00;;;;;;;3.57;3.07;;;12.80;99.30;;;;;;5011752;28;20471;-67
2021/11/02 03:02:30;;;;;;;3.20;3.00;;;12.90;99.30;;;;;;5013199;28;20421;-67
2021/11/02 03:04:58;;;;;;;3.17;2.87;;;12.80;99.10;;;;;;5015243;28;20400;-67
2021/11/02 03:07:24;;;;;;;3.30;3.00;;;12.90;99.40;;;;;;5015360;28;20412;-67
2021/11/02 03:09:50;;;;;;;3.10;2.90;;;12.80;99.40;;;;;;5014500;28;21046;-67
2021/11/02 03:12:32;;;;;;;3.43;2.90;;;12.80;99.40;;;;;;5015132;28;20808;-67
2021/11/02 03:15:40;;;;;;;3.07;2.70;;;12.80;99.30;;;;;;4997798;28;20405;-67
2021/11/02 03:56:56;;;;;;;5.53;3.77;;;12.90;99.10;;;;;;4994860;28;20405;-67
2021/11/02 04:02:11;;;;;;;3.20;3.00;;;12.80;99.30;;;;;;5013454;28;20460;-67
2021/11/02 05:09:32;;;;;;;3.47;3.27;;;11.90;98.70;;;;;;5013222;28;20505;-67
2021/11/02 05:12:51;;;;;;;4.50;2.90;;;11.90;99.10;;;;;;5012402;28;20410;-66
2021/11/02 05:53:30;;;;;;;4.97;4.20;;;11.00;99.10;;;;;;4992927;28;20395;-66
2021/11/02 05:58:30;;;;;;;4.87;4.57;;;10.90;99.50;;;;;;5003184;28;20487;-66
2021/11/02 06:01:05;;;;;;;4.93;4.60;;;10.80;99.80;;;;;;5010635;28;20448;-66
2021/11/02 06:03:40;;;;;;;5.87;5.37;;;10.80;99.80;;;;;;4995052;28;20438;-66
2021/11/02 06:09:12;;;;;;;6.40;5.90;;;10.80;99.90;;;;;;5011619;28;20406;-71
2021/11/02 06:23:44;;;;;;;;;;;;;;;;;;;;;
2021/11/02 06:29:00;;;;;;;6.20;5.70;;;10.50;99.70;;;;;;5010896;28;20850;-67
2021/11/02 06:55:25;;;;;;;7.13;6.43;;;10.50;99.90;;;;;;5017200;28;20483;-67
2021/11/02 07:20:03;;;;;;;6.47;5.97;;;10.70;99.90;;;;;;5014446;28;20421;-66
2021/11/02 08:47:03;;;;;;;4.77;3.80;;;12.40;98.20;;;;;;5013249;28;20758;-67
2021/11/02 08:49:30;;;;;;;5.30;4.43;;;12.50;98.60;;;;;;5013888;28;20406;-66
2021/11/02 08:51:57;;;;;;;4.27;3.93;;;12.60;98.60;;;;;;5013202;28;20427;-67
2021/11/02 08:54:24;;;;;;;3.77;3.57;;;12.80;98.30;;;;;;5013741;28;20445;-67
2021/11/02 08:56:52;;;;;;;4.10;2.30;;;12.70;97.40;;;;;;5013139;28;20403;-67
2021/11/02 08:59:19;;;;;;;2.30;2.20;;;12.60;97.20;;;;;;5012543;28;20785;-67
2021/11/02 09:01:53;;;;;;;2.33;1.90;;;12.60;97.10;;;;;;5013406;28;20467;-67
2021/11/02 09:04:19;;;;;;;2.50;2.40;;;12.70;97.20;;;;;;5012902;28;20411;-67
2021/11/02 09:06:50;;;;;;;3.07;2.87;;;12.70;97.30;;;;;;5012145;28;20843;-67
2021/11/02 09:09:18;;;;;;;2.30;2.13;;;12.70;97.10;;;;;;5012992;28;20516;-67
2021/11/02 09:11:45;;;;;;;4.63;2.50;;;12.70;97.30;;;;;;5013185;28;20872;-66
2021/11/02 09:14:16;;;;;;;3.30;3.17;;;12.70;97.20;;;;;;5012812;28;20422;-67
2021/11/02 09:16:46;;;;;;;2.80;2.57;;;12.70;97.00;;;;;;5011547;28;20425;-67
2021/11/02 09:19:13;;;;;;;5.00;2.43;;;12.70;97.00;;;;;;5011302;28;20453;-67
2021/11/02 09:21:39;;;;;;;2.60;2.43;;;12.70;97.20;;;;;;5011860;28;20845;-67
2021/11/02 09:24:06;;;;;;;167.73;113.33;;;12.80;97.10;;;;;;4993492;28;20429;-67
2021/11/02 09:26:33;;;;;;;345.50;206.67;;;12.80;97.00;;;;;;5011905;28;20215;-67
2021/11/02 09:29:06;;;;;;;45.57;29.27;;;12.80;97.20;;;;;;5010855;28;20426;-65
2021/11/02 09:31:36;;;;;;;6.93;4.47;;;12.90;97.30;;;;;;5010781;28;20410;-66
2021/11/02 09:34:02;;;;;;;3.00;2.80;;;12.90;97.70;;;;;;4992245;28;20426;-66
2021/11/02 09:37:17;;;;;;;2.97;2.80;;;13.00;97.10;;;;;;5011786;28;20402;-68
2021/11/02 09:39:50;;;;;;;2.77;2.50;;;13.00;96.70;;;;;;5002747;28;20434;-67
2021/11/02 09:42:38;;;;;;;2.70;2.50;;;12.90;96.30;;;;;;5011162;28;20477;-66
2021/11/02 09:45:22;;;;;;;3.47;3.10;;;12.90;96.50;;;;;;5010874;28;20414;-66
2021/11/02 09:48:01;;;;;;;3.90;3.00;;;12.80;97.20;;;;;;4992793;28;20427;-66
2021/11/02 09:50:41;;;;;;;4.80;3.10;;;12.60;96.70;;;;;;5010271;28;20422;-67
2021/11/02 09:53:35;;;;;;;2.53;2.43;;;12.70;96.70;;;;;;4993426;28;20445;-67
2021/11/02 09:56:37;;;;;;;6.33;3.20;;;12.70;96.80;;;;;;5010898;28;20418;-68
2021/11/02 09:59:24;;;;;;;2.80;2.70;;;12.90;96.80;;;;;;5010373;28;20914;-68
2021/11/02 10:02:29;;;;;;;2.87;2.60;;;13.10;97.20;;;;;;5011084;28;20464;-77
2021/11/02 10:05:09;;;;;;;3.07;2.77;;;13.40;96.90;;;;;;5010196;28;20451;-69
2021/11/02 10:07:46;;;;;;;2.83;2.50;;;13.50;96.10;;;;;;5012337;28;20836;-70
2021/11/02 10:10:14;;;;;;;2.37;2.27;;;13.60;96.00;;;;;;5006573;28;20436;-72
2021/11/02 10:12:55;;;;;;;2.40;2.30;;;13.70;95.70;;;;;;5015333;28;20841;-71
2021/11/02 10:15:46;;;;;;;2.87;2.33;;;13.80;96.00;;;;;;4998600;28;20413;-72
2021/11/02 10:18:20;;;;;;;5.30;3.50;;;14.00;96.00;;;;;;5016490;28;20551;-71
2021/11/02 10:21:22;;;;;;;2.60;2.40;;;14.20;98.20;;;;;;4996973;28;20827;-71
2021/11/02 10:24:19;;;;;;;2.70;2.50;;;14.40;95.80;;;;;;5008711;28;20422;-71
2021/11/02 10:27:02;;;;;;;2.43;2.23;;;14.40;93.70;;;;;;5015525;28;20409;-71
2021/11/02 10:29:46;;;;;;;3.03;2.83;;;14.30;93.50;;;;;;5012217;28;20496;-71
2021/11/02 10:32:18;;;;;;;2.20;2.10;;;14.20;94.20;;;;;;5016142;28;20417;-71
2021/11/02 10:34:48;;;;;;;3.70;2.20;;;13.90;94.50;;;;;;5016430;28;20417;-72
2021/11/02 10:37:34;;;;;;;2.60;2.50;;;13.90;95.10;;;;;;5016070;28;20419;-71
2021/11/02 10:40:05;;;;;;;3.73;3.43;;;13.90;95.10;;;;;;5015746;28;20758;-72
2021/11/02 10:43:22;;;;;;;6.93;5.50;;;13.70;95.40;;;;;;4999060;28;20886;-71
2021/11/02 10:46:02;;;;;;;3.67;3.37;;;13.80;96.00;;;;;;4994981;28;20790;-72
2021/11/02 10:48:47;;;;;;;3.20;3.10;;;13.80;96.00;;;;;;4992277;28;20472;-72
2021/11/02 10:51:40;;;;;;;2.50;2.40;;;13.80;95.60;;;;;;4997833;28;20477;-72
2021/11/02 10:54:15;;;;;;;2.70;2.60;;;13.70;94.90;;;;;;4997731;28;20440;-75
2021/11/02 10:57:05;;;;;;;2.60;2.40;;;13.80;96.30;;;;;;5016102;28;20404;-72
2021/11/02 10:59:32;;;;;;;2.50;2.40;;;14.00;96.60;;;;;;5016329;28;20409;-71
2021/11/02 11:01:59;;;;;;;2.50;2.40;;;14.10;94.50;;;;;;5015860;28;20500;-71
2021/11/02 11:04:32;;;;;;;3.60;3.30;;;14.10;95.40;;;;;;5014556;28;20994;-73
2021/11/02 11:06:58;;;;;;;22.53;16.10;;;14.10;93.50;;;;;;5015843;28;20457;-72
2021/11/02 11:09:30;;;;;;;3.67;2.80;;;14.10;96.00;;;;;;5014559;28;20500;-73
2021/11/02 11:12:00;;;;;;;2.90;2.70;;;14.10;94.50;;;;;;5015546;28;20428;-73
2021/11/02 11:14:31;;;;;;;4.03;2.77;;;14.00;94.70;;;;;;5014485;28;20421;-72
2021/11/02 11:16:58;;;;;;;2.73;2.63;;;13.80;96.40;;;;;;5015195;28;20417;-73
2021/11/02 11:19:37;;;;;;;2.83;2.17;;;13.90;96.80;;;;;;5014191;28;20426;-72
2021/11/02 11:22:03;;;;;;;3.17;2.80;;;13.90;95.50;;;;;;5014910;28;20477;-76
2021/11/02 11:24:33;;;;;;;3.03;2.30;;;13.50;96.50;;;;;;5014245;28;20431;-72
2021/11/02 11:27:05;;;;;;;3.70;2.40;;;13.50;96.80;;;;;;5015250;28;20419;-72
2021/11/02 11:29:52;;;;;;;2.03;1.93;;;13.40;95.40;;;;;;5014763;28;20420;-72
2021/11/02 11:32:19;;;;;;;3.07;2.87;;;12.90;96.40;;;;;;5009344;28;20522;-72
2021/11/02 11:34:46;;;;;;;3.00;2.70;;;13.00;96.40;;;;;;5015133;28;20416;-71
2021/11/02 11:37:14;;;;;;;2.73;2.53;;;13.10;97.50;;;;;;5013566;28;20414;-72
2021/11/02 11:39:42;;;;;;;2.40;2.30;;;13.20;97.30;;;;;;4997053;28;20452;-71
2021/11/02 11:42:13;;;;;;;2.50;2.40;;;13.20;96.30;;;;;;5013997;28;20476;-84
2021/11/02 11:44:43;;;;;;;11.07;6.57;;;13.20;96.50;;;;;;4997333;28;20435;-72
2021/11/02 11:47:12;;;;;;;27.73;20.97;;;13.40;97.90;;;;;;5013850;28;20489;-74
2021/11/02 11:49:45;;;;;;;14.83;11.80;;;13.20;96.60;;;;;;5014645;28;20515;-72
2021/11/02 11:52:11;;;;;;;15.83;9.70;;;13.10;97.10;;;;;;5013604;28;20407;-72
2021/11/02 11:54:46;;;;;;;3.63;2.70;;;13.50;98.40;;;;;;5014465;28;20910;-72
2021/11/02 11:57:29;;;;;;;4.00;3.53;;;13.60;96.40;;;;;;5013467;28;20445;-70
2021/11/02 12:00:03;;;;;;;2.30;2.20;;;13.20;95.90;;;;;;5014619;28;20407;-71
2021/11/02 12:02:41;;;;;;;2.17;1.97;;;13.40;96.50;;;;;;4996256;28;20543;-71
2021/11/02 12:05:19;;;;;;;2.10;2.00;;;13.60;95.90;;;;;;5013650;28;20437;-84
2021/11/02 12:08:08;;;;;;;4.90;4.50;;;13.80;95.80;;;;;;4997753;28;20534;-71
2021/11/02 12:10:37;;;;;;;2.00;1.90;;;13.90;95.50;;;;;;5013872;28;20417;-68
2021/11/02 12:13:08;;;;;;;2.23;2.13;;;14.00;94.20;;;;;;5014135;28;20447;-68
2021/11/02 12:16:10;;;;;;;2.23;2.13;;;13.90;94.10;;;;;;5013612;28;20474;-71
2021/11/02 12:18:39;;;;;;;2.53;2.43;;;13.90;94.30;;;;;;4995821;28;20471;-72
2021/11/02 12:21:07;;;;;;;2.20;2.10;;;14.00;94.40;;;;;;5014322;28;20786;-73
2021/11/02 12:23:36;;;;;;;2.50;2.00;;;14.00;94.10;;;;;;5014252;28;20457;-72
2021/11/02 12:26:02;;;;;;;2.13;1.93;;;13.90;93.90;;;;;;5014162;28;20435;-72
2021/11/02 12:28:29;;;;;;;2.30;2.00;;;13.70;93.80;;;;;;5013557;28;20415;-72
2021/11/02 12:31:11;;;;;;;1.50;1.40;;;13.60;94.40;;;;;;5014143;28;20759;-72
2021/11/02 12:33:42;;;;;;;1.77;1.77;;;13.60;94.30;;;;;;5013715;28;20408;-73
2021/11/02 12:36:11;;;;;;;1.70;1.63;;;13.70;94.50;;;;;;5013551;28;20761;-74
2021/11/02 12:38:42;;;;;;;1.60;1.60;;;13.70;94.30;;;;;;5014042;28;20436;-72
2021/11/02 12:41:34;;;;;;;1.67;1.57;;;13.70;93.80;;;;;;5013055;28;20960;-78
2021/11/02 12:44:12;;;;;;;2.00;1.90;;;13.80;94.10;;;;;;5009944;28;20464;-72
2021/11/02 12:46:41;;;;;;;2.20;2.10;;;13.80;94.00;;;;;;5014099;28;20455;-73
2021/11/02 12:49:08;;;;;;;2.87;2.77;;;13.70;93.90;;;;;;5013828;28;20428;-72
2021/11/02 12:51:39;;;;;;;2.60;2.50;;;13.80;93.50;;;;;;5013786;28;20412;-72
2021/11/02 12:54:09;;;;;;;1.50;1.50;;;13.90;93.60;;;;;;5013788;28;20451;-72
2021/11/02 12:56:36;;;;;;;2.80;2.70;;;14.00;93.20;;;;;;5013581;28;20441;-72
2021/11/02 12:59:25;;;;;;;1.90;1.90;;;14.00;93.20;;;;;;5013675;28;20523;-72
2021/11/02 13:01:51;;;;;;;2.03;1.93;;;14.10;93.20;;;;;;5013645;28;20445;-73
2021/11/02 13:04:18;;;;;;;2.37;2.17;;;14.00;93.20;;;;;;5013004;28;20417;-72
2021/11/02 13:06:48;;;;;;;2.90;2.70;;;14.10;93.90;;;;;;5013364;28;20409;-73
2021/11/02 13:09:16;;;;;;;2.17;2.07;;;13.90;93.10;;;;;;5012635;28;20769;-72
2021/11/02 13:11:43;;;;;;;2.40;2.30;;;13.90;93.30;;;;;;5013377;28;20457;-71
2021/11/02 13:14:14;;;;;;;1.83;1.83;;;13.90;93.60;;;;;;5013272;28;20957;-77
2021/11/02 13:16:57;;;;;;;2.70;2.50;;;14.00;93.30;;;;;;5013557;28;20495;-72
2021/11/02 13:19:30;;;;;;;2.40;2.30;;;14.10;93.50;;;;;;5012867;28;20409;-71
2021/11/02 13:22:08;;;;;;;1.90;1.80;;;14.00;93.40;;;;;;5013367;28;20967;-73
2021/11/02 13:24:34;;;;;;;2.80;2.70;;;14.10;92.90;;;;;;5012411;28;20405;-72
2021/11/02 13:27:00;;;;;;;2.60;2.40;;;14.00;93.30;;;;;;5013288;28;20417;-73
2021/11/02 13:29:27;;;;;;;2.50;2.50;;;14.10;93.50;;;;;;5012884;28;20773;-72
2021/11/02 13:31:54;;;;;;;2.37;2.37;;;14.10;93.30;;;;;;5012960;28;20187;-72
2021/11/02 13:34:29;;;;;;;2.30;2.30;;;14.10;93.50;;;;;;4995027;28;20515;-72
2021/11/02 13:37:01;;;;;;;2.60;2.50;;;14.10;93.70;;;;;;5013076;28;20855;-72
2021/11/02 13:39:27;;;;;;;2.13;2.10;;;14.10;93.60;;;;;;5012565;28;20467;-72
2021/11/02 13:41:55;;;;;;;2.43;2.40;;;14.10;93.30;;;;;;5012841;28;20476;-72
2021/11/02 13:44:23;;;;;;;2.30;2.20;;;14.00;93.40;;;;;;5011579;28;20269;-73
2021/11/02 13:46:59;;;;;;;2.30;2.20;;;14.00;93.80;;;;;;5011988;28;20416;-72
2021/11/02 13:49:24;;;;;;;2.20;2.10;;;14.00;94.10;;;;;;5012127;28;20413;-72
2021/11/02 13:51:51;;;;;;;2.37;2.27;;;13.90;93.70;;;;;;5012919;28;20424;-71
2021/11/02 13:54:19;;;;;;;2.30;2.20;;;13.70;93.70;;;;;;5012546;28;20231;-72
2021/11/02 13:56:45;;;;;;;2.20;2.20;;;13.70;93.70;;;;;;4995193;28;20425;-72
2021/11/02 13:59:13;;;;;;;2.40;2.30;;;13.50;94.20;;;;;;5012892;28;20424;-72
2021/11/02 14:01:48;;;;;;;1.90;1.90;;;13.40;94.10;;;;;;4995177;28;20455;-71
2021/11/02 14:04:36;;;;;;;3.50;3.40;;;13.50;94.20;;;;;;4978570;28;20826;-73
2021/11/02 14:07:07;;;;;;;2.10;2.00;;;13.50;94.30;;;;;;5012610;28;20413;-73
2021/11/02 14:09:37;;;;;;;1.90;1.90;;;13.60;95.00;;;;;;5012050;28;20897;-73
2021/11/02 14:12:26;;;;;;;1.53;1.43;;;13.60;94.90;;;;;;5012916;28;20415;-73
2021/11/02 14:15:10;;;;;;;4.43;4.33;;;13.70;94.60;;;;;;5010184;28;20436;-73
2021/11/02 14:17:47;;;;;;;2.00;1.90;;;13.50;94.60;;;;;;5018754;28;20423;-69
2021/11/02 14:20:32;;;;;;;1.67;1.67;;;13.60;95.00;;;;;;5015883;28;20424;-69
2021/11/02 14:22:59;;;;;;;2.10;2.10;;;13.70;94.60;;;;;;5003537;28;20439;-68
2021/11/02 14:25:35;;;;;;;2.50;2.40;;;13.70;94.60;;;;;;5011161;28;20407;-69
2021/11/02 14:28:01;;;;;;;3.10;2.90;;;13.40;94.80;;;;;;5012105;28;20589;-68
2021/11/02 14:30:53;;;;;;;3.40;3.27;;;13.40;95.30;;;;;;5010602;28;20504;-69
2021/11/02 14:33:21;;;;;;;5.10;4.90;;;13.20;95.50;;;;;;4988102;28;20442;-69
2021/11/02 14:35:46;;;;;;;2.47;2.37;;;13.20;95.90;;;;;;5010984;28;20501;-68
2021/11/02 14:38:42;;;;;;;15.13;11.50;;;13.30;95.50;;;;;;5012013;28;20421;-68
2021/11/02 14:41:29;;;;;;;66.07;49.13;;;13.30;95.70;;;;;;5012062;28;20475;-68
2021/11/02 14:44:13;;;;;;;4.70;3.90;;;13.20;95.70;;;;;;4994095;28;20449;-69
2021/11/02 14:46:42;;;;;;;3.10;3.00;;;13.30;95.60;;;;;;5010703;28;20437;-69
2021/11/02 14:49:30;;;;;;;2.70;2.60;;;13.30;95.50;;;;;;5021951;28;20459;-68
2021/11/02 14:52:07;;;;;;;3.10;3.00;;;13.40;95.60;;;;;;5010693;28;20531;-68
2021/11/02 14:54:43;;;;;;;2.63;2.53;;;13.40;95.90;;;;;;5009161;28;20453;-69
2021/11/02 14:57:18;;;;;;;2.67;2.50;;;13.10;96.00;;;;;;4992767;28;20825;-69
2021/11/02 14:59:55;;;;;;;3.00;2.80;;;13.00;96.60;;;;;;5013832;28;20426;-68
2021/11/02 15:02:35;;;;;;;3.20;2.90;;;12.90;96.80;;;;;;5014366;28;20471;-69
2021/11/02 15:05:06;;;;;;;318.83;196.87;;;13.00;96.80;;;;;;5015409;28;20424;-68
2021/11/02 15:07:34;;;;;;;12.03;10.77;;;12.80;97.20;;;;;;5014737;28;20447;-68
2021/11/02 15:10:04;;;;;;;2.80;2.70;;;12.80;97.50;;;;;;5015068;28;20428;-68
2021/11/02 15:12:30;;;;;;;2.50;2.40;;;12.80;97.60;;;;;;5014171;28;20421;-68
2021/11/02 15:14:58;;;;;;;2.63;2.43;;;13.00;97.60;;;;;;5015094;28;20489;-69
2021/11/02 15:17:23;;;;;;;3.20;3.00;;;13.00;97.40;;;;;;4997388;28;20710;-68
2021/11/02 15:19:49;;;;;;;2.90;2.73;;;13.10;97.30;;;;;;5015377;28;20503;-69
2021/11/02 15:22:18;;;;;;;3.07;2.90;;;12.80;97.70;;;;;;4997983;28;20214;-68
2021/11/02 15:24:51;;;;;;;3.03;2.83;;;12.80;97.90;;;;;;5015415;28;20264;-68
2021/11/02 15:27:20;;;;;;;3.10;3.00;;;12.90;97.90;;;;;;5014875;28;20491;-77
2021/11/02 15:29:50;;;;;;;2.90;2.80;;;12.80;97.80;;;;;;4997436;28;20417;-68
2021/11/02 15:32:27;;;;;;;3.00;2.80;;;12.80;98.00;;;;;;5015087;28;20407;-68
2021/11/02 15:34:56;;;;;;;3.53;3.30;;;12.80;97.90;;;;;;5015443;28;20394;-68
2021/11/02 15:37:38;;;;;;;2.70;2.60;;;12.90;97.80;;;;;;5014666;28;20432;-69
2021/11/02 15:40:20;;;;;;;2.50;2.40;;;12.80;97.80;;;;;;5015139;28;20477;-68
2021/11/02 15:42:51;;;;;;;2.13;2.10;;;12.80;97.70;;;;;;5015685;28;20503;-68
2021/11/02 15:45:38;;;;;;;2.83;2.40;;;12.90;97.60;;;;;;5014827;28;20425;-67
2021/11/02 15:48:10;;;;;;;2.60;2.50;;;12.90;97.40;;;;;;5014876;28;20415;-68
2021/11/02 15:50:39;;;;;;;2.67;2.27;;;13.00;97.20;;;;;;4996874;28;20419;-67
2021/11/02 15:53:09;;;;;;;2.60;2.50;;;12.90;96.90;;;;;;5014911;28;20425;-68
2021/11/02 15:55:36;;;;;;;2.87;2.77;;;12.90;96.80;;;;;;5014263;28;20412;-67
2021/11/02 15:58:06;;;;;;;2.57;2.47;;;12.90;96.70;;;;;;4997205;28;20809;-67
2021/11/02 16:00:39;;;;;;;3.80;3.50;;;12.90;96.80;;;;;;5014082;28;20459;-67
2021/11/02 16:03:06;;;;;;;2.37;2.27;;;12.90;96.60;;;;;;5014852;28;20421;-67
2021/11/02 16:05:33;;;;;;;2.20;2.10;;;12.80;96.70;;;;;;5014021;28;20411;-67
2021/11/02 16:08:01;;;;;;;2.23;2.13;;;12.80;96.90;;;;;;5014636;28;20412;-67
2021/11/02 16:10:32;;;;;;;1.87;1.83;;;12.90;97.10;;;;;;5013588;28;20432;-67
2021/11/02 16:13:03;;;;;;;2.00;2.00;;;12.70;97.20;;;;;;5014568;28;20450;-67
2021/11/02 16:15:33;;;;;;;2.13;2.03;;;12.70;97.40;;;;;;5013951;28;20414;-68
2021/11/02 16:18:15;;;;;;;1.80;1.80;;;12.70;97.50;;;;;;5014467;28;20411;-68
2021/11/02 16:20:42;;;;;;;1.80;1.80;;;12.80;97.50;;;;;;5013694;28;20966;-67
2021/11/02 16:23:16;;;;;;;2.83;2.60;;;12.80;97.50;;;;;;5014026;28;20405;-67
2021/11/02 16:25:53;;;;;;;2.60;2.50;;;12.90;97.70;;;;;;5013721;28;20858;-67
2021/11/02 16:28:25;;;;;;;2.90;2.80;;;12.80;97.60;;;;;;4996979;28;20400;-67
2021/11/02 16:30:56;;;;;;;3.03;2.93;;;12.80;97.80;;;;;;5013965;28;20424;-67
2021/11/02 16:33:43;;;;;;;3.00;2.90;;;12.80;98.10;;;;;;5013710;28;20415;-69
2021/11/02 16:36:21;;;;;;;2.90;2.70;;;12.80;98.50;;;;;;4996734;28;20390;-67
2021/11/02 16:38:49;;;;;;;2.80;2.70;;;12.80;99.00;;;;;;5014163;28;20401;-67
2021/11/02 16:41:28;;;;;;;3.27;3.17;;;12.80;99.10;;;;;;4996052;28;20484;-67
2021/11/02 16:44:07;;;;;;;3.60;3.40;;;12.80;99.20;;;;;;5006346;28;20505;-67
2021/11/02 16:46:44;;;;;;;3.70;3.47;;;12.80;99.50;;;;;;4998011;28;20445;-67
2021/11/02 16:49:14;;;;;;;3.90;3.40;;;12.70;99.90;;;;;;5013705;28;20424;-67
2021/11/02 16:52:06;;;;;;;4.50;4.20;;;12.80;99.90;;;;;;5012560;28;20793;-67
2021/11/02 16:54:35;;;;;;;3.27;3.07;;;12.80;99.90;;;;;;5004516;28;20423;-67
2021/11/02 16:57:06;;;;;;;3.57;3.30;;;12.90;99.90;;;;;;5010469;28;20457;-67
2021/11/02 16:59:38;;;;;;;3.50;3.30;;;12.90;99.60;;;;;;5010983;28;20459;-71
2021/11/02 17:02:17;;;;;;;3.70;3.50;;;13.00;99.60;;;;;;5017662;28;20457;-67
2021/11/02 17:05:19;;;;;;;3.60;3.40;;;12.90;99.60;;;;;;5018867;28;20509;-67
2021/11/02 17:08:09;;;;;;;5.47;5.07;;;12.90;99.70;;;;;;5013004;28;20731;-68
2021/11/02 17:10:35;;;;;;;4.13;3.83;;;12.90;99.70;;;;;;5012860;28;20475;-67
2021/11/02 17:13:06;;;;;;;3.40;3.20;;;12.80;99.80;;;;;;5013527;28;20650;-67
2021/11/02 17:15:44;;;;;;;3.93;3.73;;;12.80;99.90;;;;;;5012997;28;20442;-67
2021/11/02 17:18:15;;;;;;;3.83;3.63;;;12.80;99.90;;;;;;5013565;28;20496;-67
2021/11/02 17:20:42;;;;;;;4.47;4.17;;;12.80;99.90;;;;;;4994504;28;21170;-67
2021/11/02 17:23:09;;;;;;;3.83;3.63;;;12.70;99.90;;;;;;5012641;28;20426;-67
2021/11/02 17:25:36;;;;;;;3.80;3.60;;;12.80;99.90;;;;;;5006549;28;20433;-67
2021/11/02 17:28:03;;;;;;;3.50;3.30;;;12.80;99.90;;;;;;4993414;28;20457;-67
2021/11/02 17:30:32;;;;;;;4.40;4.10;;;12.80;99.90;;;;;;5006624;28;20452;-67
2021/11/02 17:33:00;;;;;;;4.13;3.80;;;12.80;99.90;;;;;;5023393;28;20514;-67
2021/11/02 17:35:26;;;;;;;3.63;3.43;;;12.70;99.90;;;;;;5032212;28;20456;-68
2021/11/02 17:37:54;;;;;;;3.80;3.60;;;12.70;99.90;;;;;;5032807;28;20417;-67
2021/11/02 17:40:21;;;;;;;3.70;3.50;;;12.80;99.90;;;;;;5032758;28;20422;-67
2021/11/02 17:42:56;;;;;;;3.80;3.60;;;12.80;99.90;;;;;;5018109;28;20473;-67
2021/11/02 17:45:23;;;;;;;3.60;3.40;;;12.80;99.90;;;;;;5013116;28;20486;-67
2021/11/02 17:47:51;;;;;;;5.03;4.83;;;12.80;99.90;;;;;;5013480;28;20407;-67
2021/11/02 17:50:20;;;;;;;4.00;3.70;;;12.90;99.90;;;;;;5022805;28;20770;-67
2021/11/02 17:52:47;;;;;;;4.20;4.00;;;12.90;99.90;;;;;;5005178;28;20421;-67
2021/11/02 17:55:14;;;;;;;4.10;3.90;;;12.80;99.90;;;;;;5032277;28;20855;-67
2021/11/02 17:57:44;;;;;;;5.20;4.90;;;12.90;99.90;;;;;;5015702;28;20418;-69
2021/11/02 18:00:13;;;;;;;4.60;4.40;;;12.80;99.70;;;;;;5023305;28;20753;-67
2021/11/02 18:02:39;;;;;;;4.50;4.30;;;12.80;99.70;;;;;;5012121;28;20420;-67
2021/11/02 18:05:07;;;;;;;4.53;4.30;;;12.90;99.90;;;;;;5012569;28;20913;-67
2021/11/02 18:07:33;;;;;;;4.77;4.57;;;12.80;99.80;;;;;;5012087;28;20414;-67
2021/11/02 18:09:59;;;;;;;4.37;4.13;;;12.90;99.70;;;;;;5012350;28;20925;-73
2021/11/02 18:12:27;;;;;;;4.07;3.77;;;12.90;99.60;;;;;;5011658;28;20437;-67